St-Mathieu-De-Beloeil Airport

CSB3 · Quebec, 加拿大

罗盘
风向 的 St-Mathieu-De-Beloeil Airport 15/33
风: 2 kt, 1 beaufort

2 kt

1 kt
改变
0 1.000 2.000 3.000 4.000 5.000
没有云
METAR CYHU 031100Z AUTO VRB02KT 9SM CLR 00/M01 A3040 RMK SLP297

METAR St-Mathieu-De-Beloeil Airport - CSB3

St-Mathieu-De-Beloeil Airport是St-Mathieu-De-Beloeil,加拿大中的小机场。 该机场有一条跑道: 15/33. 该领域的国际民航组织标志是CSB3.

这份报告是针对2022年10月3日 07:00, 当地时间在Montréal / Saint-Hubert Airport进行的。

机场观察

可变方向的风很小或没有风。

可见度为9 mi。

有没有云。 没有观察到天花板。

温度为0 °C,阵风为-2 °C。 露点为-1 °C,相对湿度为93%。 海平面上的气压为30,40 inHg (QNH)。

白天

今天,太阳从06:54升起,在18:29降落。 这适用于St-Mathieu-De-Beloeil Airport,世界夏令时可能有所不同。 当地时间与世界标准时间之间的时差为-4 小时。 夏令时目前正在进行中。

公司介绍

我们没有关于这个机场的公司信息。

体会

到Vliegles.nl去找飞行课程,跳伞和其他飞行体验。 浏览页面,了解St-Mathieu-De-Beloeil Airport附近所有可用的活动。 你也可以使用搜索功能来寻找你所在地附近的特定飞行课程、跳伞或其他飞行体验。

跑道

Id 标题 侧风 逆风 侧风 %
15/33 150°-330° 1 kt 2 kt 50 %

逆风成分最大的方向会被突出显示,并用于横风计算。 这并不一定意味着这个方向在使用。

乌云

- CLR 没有云

温度 & 天气

温度 0 °C
露点 -1 °C
相对湿度 93%
风寒 -2 °C
Kp-index 1 (0-9)

评论

SLP297海平面压力为30,41 inHg (30,41 inHg)

白天

日出
06:54
中午
12:42
日落
18:30 (10h 44m)

小工具

你想在你的网站上有一个关于St-Mathieu-De-Beloeil Airport的当前航空天气(METAR)的小部件吗?

</> 显示HTML代码

我们和第三方通过cookies跟踪您在我们网站上的上网行为。如果您继续,我们认为您同意我们的cookie政策。 了解更多